sensor_id;sensor_type;location;lat;lon;timestamp;pressure;altitude;pressure_sealevel;temperature;humidity
72857;BME280;62742;52.136;4.500;2022-09-16T00:00:30;101181.59;;;13.38;72.88
72857;BME280;62742;52.136;4.500;2022-09-16T00:02:57;101181.44;;;13.46;74.45
72857;BME280;62742;52.136;4.500;2022-09-16T00:05:24;101181.50;;;13.43;74.08
72857;BME280;62742;52.136;4.500;2022-09-16T00:07:51;101181.53;;;13.41;75.80
72857;BME280;62742;52.136;4.500;2022-09-16T00:10:18;101175.69;;;13.25;74.87
72857;BME280;62742;52.136;4.500;2022-09-16T00:12:47;101187.66;;;13.42;76.11
72857;BME280;62742;52.136;4.500;2022-09-16T00:15:14;101196.34;;;13.47;74.74
72857;BME280;62742;52.136;4.500;2022-09-16T00:17:41;101200.09;;;13.37;77.30
72857;BME280;62742;52.136;4.500;2022-09-16T00:20:08;101212.41;;;13.38;78.25
72857;BME280;62742;52.136;4.500;2022-09-16T00:22:35;101202.78;;;13.34;80.19
72857;BME280;62742;52.136;4.500;2022-09-16T00:25:02;101205.81;;;13.15;80.46
72857;BME280;62742;52.136;4.500;2022-09-16T00:27:29;101190.25;;;13.00;81.23
72857;BME280;62742;52.136;4.500;2022-09-16T00:29:55;101194.72;;;12.96;81.99
72857;BME280;62742;52.136;4.500;2022-09-16T00:32:21;101183.09;;;13.06;81.90
72857;BME280;62742;52.136;4.500;2022-09-16T00:34:50;101182.22;;;13.06;81.72
72857;BME280;62742;52.136;4.500;2022-09-16T00:37:17;101176.09;;;13.05;81.52
72857;BME280;62742;52.136;4.500;2022-09-16T00:39:47;101178.69;;;13.08;81.41
72857;BME280;62742;52.136;4.500;2022-09-16T00:42:15;101184.00;;;13.07;81.37
72857;BME280;62742;52.136;4.500;2022-09-16T00:44:57;101175.97;;;13.10;80.69
72857;BME280;62742;52.136;4.500;2022-09-16T00:47:33;101174.16;;;13.15;81.11
72857;BME280;62742;52.136;4.500;2022-09-16T00:50:21;101179.38;;;13.17;80.64
72857;BME280;62742;52.136;4.500;2022-09-16T00:52:56;101190.88;;;13.14;80.89
72857;BME280;62742;52.136;4.500;2022-09-16T00:55:28;101189.88;;;13.18;81.37
72857;BME280;62742;52.136;4.500;2022-09-16T00:58:27;101194.63;;;13.46;80.58
72857;BME280;62742;52.136;4.500;2022-09-16T01:01:04;101182.25;;;13.48;79.99
72857;BME280;62742;52.136;4.500;2022-09-16T01:03:38;101185.34;;;13.25;81.31
72857;BME280;62742;52.136;4.500;2022-09-16T01:06:10;101181.91;;;13.21;81.93
72857;BME280;62742;52.136;4.500;2022-09-16T01:08:41;101196.84;;;13.22;81.84
72857;BME280;62742;52.136;4.500;2022-09-16T01:11:08;101195.00;;;13.27;81.85
72857;BME280;62742;52.136;4.500;2022-09-16T01:13:36;101194.16;;;13.25;81.83
72857;BME280;62742;52.136;4.500;2022-09-16T01:19:11;101195.00;;;13.27;82.02
72857;BME280;62742;52.136;4.500;2022-09-16T01:25:01;101191.69;;;13.16;79.76
72857;BME280;62742;52.136;4.500;2022-09-16T01:40:33;101203.19;;;12.68;77.39
72857;BME280;62742;52.136;4.500;2022-09-16T02:05:44;101206.56;;;12.75;78.62
72857;BME280;62742;52.136;4.500;2022-09-16T02:08:37;101215.56;;;12.63;79.24
72857;BME280;62742;52.136;4.500;2022-09-16T02:11:07;101213.53;;;12.79;80.53
72857;BME280;62742;52.136;4.500;2022-09-16T02:13:40;101212.81;;;12.71;80.55
72857;BME280;62742;52.136;4.500;2022-09-16T02:16:24;101202.91;;;12.82;81.28
72857;BME280;62742;52.136;4.500;2022-09-16T02:18:56;101199.44;;;12.80;81.20
72857;BME280;62742;52.136;4.500;2022-09-16T02:21:32;101200.41;;;12.76;81.52
72857;BME280;62742;52.136;4.500;2022-09-16T02:24:04;101194.88;;;12.90;80.72
72857;BME280;62742;52.136;4.500;2022-09-16T02:26:40;101191.44;;;12.86;81.60
72857;BME280;62742;52.136;4.500;2022-09-16T02:29:20;101196.75;;;12.83;81.98
72857;BME280;62742;52.136;4.500;2022-09-16T02:31:54;101197.50;;;12.90;81.83
72857;BME280;62742;52.136;4.500;2022-09-16T02:34:33;101198.53;;;12.83;82.32
72857;BME280;62742;52.136;4.500;2022-09-16T02:37:08;101194.19;;;12.79;82.10
72857;BME280;62742;52.136;4.500;2022-09-16T02:39:41;101209.03;;;12.84;82.04
72857;BME280;62742;52.136;4.500;2022-09-16T02:42:15;101212.94;;;12.63;80.23
72857;BME280;62742;52.136;4.500;2022-09-16T02:44:44;101211.63;;;12.87;80.57
72857;BME280;62742;52.136;4.500;2022-09-16T02:50:14;101223.56;;;12.06;77.40
72857;BME280;62742;52.136;4.500;2022-09-16T02:52:57;101222.66;;;11.46;79.26
72857;BME280;62742;52.136;4.500;2022-09-16T02:55:41;101215.63;;;11.47;77.47
72857;BME280;62742;52.136;4.500;2022-09-16T02:58:13;101217.25;;;11.57;78.62
72857;BME280;62742;52.136;4.500;2022-09-16T03:00:43;101204.63;;;11.81;81.16
72857;BME280;62742;52.136;4.500;2022-09-16T03:03:13;101198.34;;;11.92;81.10
72857;BME280;62742;52.136;4.500;2022-09-16T03:08:35;101188.47;;;12.05;81.20
72857;BME280;62742;52.136;4.500;2022-09-16T03:14:14;101179.31;;;12.26;81.02
72857;BME280;62742;52.136;4.500;2022-09-16T03:31:58;101203.13;;;12.22;82.30
72857;BME280;62742;52.136;4.500;2022-09-16T03:34:40;101205.19;;;12.04;80.42
72857;BME280;62742;52.136;4.500;2022-09-16T03:37:14;101199.56;;;12.24;81.35
72857;BME280;62742;52.136;4.500;2022-09-16T03:39:50;101203.16;;;12.20;81.92
72857;BME280;62742;52.136;4.500;2022-09-16T03:42:19;101194.53;;;12.10;79.85
72857;BME280;62742;52.136;4.500;2022-09-16T03:44:46;101184.63;;;11.69;80.83
72857;BME280;62742;52.136;4.500;2022-09-16T03:47:14;101189.63;;;11.86;83.13
72857;BME280;62742;52.136;4.500;2022-09-16T03:49:41;101193.88;;;11.96;82.10
72857;BME280;62742;52.136;4.500;2022-09-16T03:52:08;101188.38;;;12.11;82.15
72857;BME280;62742;52.136;4.500;2022-09-16T03:54:36;101186.53;;;12.16;82.36
72857;BME280;62742;52.136;4.500;2022-09-16T03:57:04;101182.91;;;12.24;82.66
72857;BME280;62742;52.136;4.500;2022-09-16T03:59:31;101177.66;;;12.21;83.12
72857;BME280;62742;52.136;4.500;2022-09-16T04:01:57;101173.25;;;12.21;83.30
72857;BME280;62742;52.136;4.500;2022-09-16T04:04:24;101172.25;;;12.30;82.98
72857;BME280;62742;52.136;4.500;2022-09-16T04:06:50;101173.94;;;12.34;83.04
72857;BME280;62742;52.136;4.500;2022-09-16T04:09:17;101167.78;;;12.35;83.48
72857;BME280;62742;52.136;4.500;2022-09-16T04:11:43;101182.81;;;12.30;83.30
72857;BME280;62742;52.136;4.500;2022-09-16T04:14:09;101175.72;;;12.32;83.42
72857;BME280;62742;52.136;4.500;2022-09-16T04:16:36;101176.59;;;12.32;82.89
72857;BME280;62742;52.136;4.500;2022-09-16T04:19:03;101174.91;;;12.30;82.47
72857;BME280;62742;52.136;4.500;2022-09-16T04:21:30;101179.47;;;12.19;82.77
72857;BME280;62742;52.136;4.500;2022-09-16T04:23:56;101174.38;;;12.09;82.94
72857;BME280;62742;52.136;4.500;2022-09-16T04:26:23;101181.66;;;11.92;82.96
72857;BME280;62742;52.136;4.500;2022-09-16T04:28:52;101170.06;;;12.02;81.27
72857;BME280;62742;52.136;4.500;2022-09-16T04:31:20;101166.34;;;12.15;80.47
72857;BME280;62742;52.136;4.500;2022-09-16T04:33:47;101175.06;;;12.19;79.77
72857;BME280;62742;52.136;4.500;2022-09-16T04:36:16;101165.53;;;12.10;78.46
72857;BME280;62742;52.136;4.500;2022-09-16T04:38:45;101171.53;;;12.22;79.49
72857;BME280;62742;52.136;4.500;2022-09-16T04:41:18;101167.09;;;12.24;79.63
72857;BME280;62742;52.136;4.500;2022-09-16T04:43:50;101171.63;;;12.14;78.47
72857;BME280;62742;52.136;4.500;2022-09-16T04:46:25;101170.56;;;12.26;76.92
72857;BME280;62742;52.136;4.500;2022-09-16T04:48:55;101172.41;;;12.21;78.13
72857;BME280;62742;52.136;4.500;2022-09-16T04:51:23;101163.66;;;12.19;79.06
72857;BME280;62742;52.136;4.500;2022-09-16T04:53:55;101175.72;;;12.33;80.04
72857;BME280;62742;52.136;4.500;2022-09-16T04:56:26;101172.34;;;12.24;80.62
72857;BME280;62742;52.136;4.500;2022-09-16T04:58:58;101177.53;;;12.30;78.14
72857;BME280;62742;52.136;4.500;2022-09-16T05:01:29;101180.00;;;12.38;78.88
72857;BME280;62742;52.136;4.500;2022-09-16T05:04:00;101177.63;;;12.24;76.67
72857;BME280;62742;52.136;4.500;2022-09-16T05:06:40;101179.09;;;12.40;75.31
72857;BME280;62742;52.136;4.500;2022-09-16T05:09:08;101177.34;;;12.41;78.08
72857;BME280;62742;52.136;4.500;2022-09-16T05:11:38;101178.38;;;12.32;74.92
72857;BME280;62742;52.136;4.500;2022-09-16T05:14:07;101180.19;;;12.28;74.51
72857;BME280;62742;52.136;4.500;2022-09-16T05:16:38;101185.53;;;12.24;77.13
72857;BME280;62742;52.136;4.500;2022-09-16T05:19:05;101174.97;;;12.25;75.69
72857;BME280;62742;52.136;4.500;2022-09-16T05:21:34;101179.44;;;12.20;73.74
72857;BME280;62742;52.136;4.500;2022-09-16T05:24:04;101180.00;;;12.38;74.92
72857;BME280;62742;52.136;4.500;2022-09-16T05:26:37;101182.56;;;12.42;75.11
72857;BME280;62742;52.136;4.500;2022-09-16T05:29:08;101174.66;;;12.44;73.06
72857;BME280;62742;52.136;4.500;2022-09-16T05:31:39;101180.97;;;12.35;73.36
72857;BME280;62742;52.136;4.500;2022-09-16T05:34:15;101175.50;;;12.44;74.74
72857;BME280;62742;52.136;4.500;2022-09-16T05:36:47;101181.22;;;12.68;68.67
72857;BME280;62742;52.136;4.500;2022-09-16T05:39:16;101184.88;;;12.62;71.81
72857;BME280;62742;52.136;4.500;2022-09-16T05:41:46;101183.31;;;12.50;73.46
72857;BME280;62742;52.136;4.500;2022-09-16T05:44:13;101185.94;;;12.50;69.43
72857;BME280;62742;52.136;4.500;2022-09-16T05:46:40;101188.38;;;12.61;71.08
72857;BME280;62742;52.136;4.500;2022-09-16T05:49:09;101196.91;;;12.74;69.23
72857;BME280;62742;52.136;4.500;2022-09-16T05:51:37;101209.00;;;12.86;72.53
72857;BME280;62742;52.136;4.500;2022-09-16T05:54:05;101207.91;;;12.49;74.10
72857;BME280;62742;52.136;4.500;2022-09-16T05:56:32;101226.69;;;12.31;78.45
72857;BME280;62742;52.136;4.500;2022-09-16T05:58:59;101235.91;;;12.02;80.32
72857;BME280;62742;52.136;4.500;2022-09-16T06:01:32;101266.94;;;11.78;81.73
72857;BME280;62742;52.136;4.500;2022-09-16T06:04:01;101256.63;;;11.63;82.43
72857;BME280;62742;52.136;4.500;2022-09-16T06:06:34;101243.75;;;11.41;82.57
72857;BME280;62742;52.136;4.500;2022-09-16T06:11:38;101211.97;;;11.57;83.30
72857;BME280;62742;52.136;4.500;2022-09-16T06:14:07;101212.63;;;11.71;80.34
72857;BME280;62742;52.136;4.500;2022-09-16T06:16:34;101224.97;;;11.68;77.97
72857;BME280;62742;52.136;4.500;2022-09-16T06:19:06;101219.72;;;11.66;78.80
72857;BME280;62742;52.136;4.500;2022-09-16T06:21:39;101218.66;;;11.79;80.01
72857;BME280;62742;52.136;4.500;2022-09-16T06:24:06;101217.50;;;12.01;80.74
72857;BME280;62742;52.136;4.500;2022-09-16T06:26:35;101208.78;;;11.95;81.35
72857;BME280;62742;52.136;4.500;2022-09-16T06:29:04;101217.50;;;12.01;82.14
72857;BME280;62742;52.136;4.500;2022-09-16T06:31:31;101216.41;;;12.15;82.41
72857;BME280;62742;52.136;4.500;2022-09-16T06:33:59;101219.69;;;12.30;82.00
72857;BME280;62742;52.136;4.500;2022-09-16T06:36:30;101213.06;;;12.57;81.12
72857;BME280;62742;52.136;4.500;2022-09-16T06:38:59;101209.28;;;12.70;80.96
72857;BME280;62742;52.136;4.500;2022-09-16T06:41:25;101207.53;;;12.72;81.05
72857;BME280;62742;52.136;4.500;2022-09-16T06:43:52;101222.91;;;12.94;79.41
72857;BME280;62742;52.136;4.500;2022-09-16T06:46:24;101215.16;;;12.86;78.98
72857;BME280;62742;52.136;4.500;2022-09-16T06:48:56;101207.53;;;13.16;77.78
72857;BME280;62742;52.136;4.500;2022-09-16T06:51:26;101207.44;;;13.21;77.99
72857;BME280;62742;52.136;4.500;2022-09-16T06:53:58;101206.50;;;13.23;77.48
72857;BME280;62742;52.136;4.500;2022-09-16T06:56:27;101209.50;;;13.50;76.36
72857;BME280;62742;52.136;4.500;2022-09-16T06:58:54;101210.19;;;13.58;75.47
72857;BME280;62742;52.136;4.500;2022-09-16T07:01:24;101200.56;;;13.95;75.13
72857;BME280;62742;52.136;4.500;2022-09-16T07:03:53;101206.25;;;14.14;73.32
72857;BME280;62742;52.136;4.500;2022-09-16T07:06:23;101201.88;;;14.82;77.28
72857;BME280;62742;52.136;4.500;2022-09-16T07:08:53;101194.44;;;14.96;71.02
72857;BME280;62742;52.136;4.500;2022-09-16T07:11:21;101191.53;;;15.65;74.58
72857;BME280;62742;52.136;4.500;2022-09-16T07:13:50;101199.75;;;15.56;67.72
72857;BME280;62742;52.136;4.500;2022-09-16T07:16:22;101186.28;;;15.63;68.44
72857;BME280;62742;52.136;4.500;2022-09-16T07:18:54;101204.31;;;14.89;68.21
72857;BME280;62742;52.136;4.500;2022-09-16T07:21:26;101206.19;;;14.86;70.89
72857;BME280;62742;52.136;4.500;2022-09-16T07:23:58;101208.59;;;14.95;73.39
72857;BME280;62742;52.136;4.500;2022-09-16T07:26:31;101214.53;;;14.70;70.78
72857;BME280;62742;52.136;4.500;2022-09-16T07:29:01;101220.50;;;14.78;73.18
72857;BME280;62742;52.136;4.500;2022-09-16T07:31:32;101217.06;;;14.40;71.53
72857;BME280;62742;52.136;4.500;2022-09-16T07:34:01;101221.59;;;14.35;72.55
72857;BME280;62742;52.136;4.500;2022-09-16T07:36:35;101226.56;;;14.12;72.41
72857;BME280;62742;52.136;4.500;2022-09-16T07:39:06;101218.97;;;14.34;72.74
72857;BME280;62742;52.136;4.500;2022-09-16T07:41:36;101229.59;;;14.32;74.13
72857;BME280;62742;52.136;4.500;2022-09-16T07:44:05;101221.56;;;14.37;70.35
72857;BME280;62742;52.136;4.500;2022-09-16T07:46:35;101216.19;;;14.04;68.28
72857;BME280;62742;52.136;4.500;2022-09-16T07:49:04;101211.97;;;13.95;72.49
72857;BME280;62742;52.136;4.500;2022-09-16T07:51:33;101221.22;;;14.15;73.68
72857;BME280;62742;52.136;4.500;2022-09-16T07:54:03;101231.75;;;14.52;68.77
72857;BME280;62742;52.136;4.500;2022-09-16T07:56:34;101246.41;;;14.66;66.55
72857;BME280;62742;52.136;4.500;2022-09-16T07:59:04;101253.63;;;14.59;69.38
72857;BME280;62742;52.136;4.500;2022-09-16T08:01:32;101266.38;;;14.41;71.05
72857;BME280;62742;52.136;4.500;2022-09-16T08:04:00;101263.66;;;14.07;70.28
72857;BME280;62742;52.136;4.500;2022-09-16T08:06:29;101266.03;;;13.82;72.67
72857;BME280;62742;52.136;4.500;2022-09-16T08:08:59;101263.00;;;13.58;73.99
72857;BME280;62742;52.136;4.500;2022-09-16T08:11:27;101270.16;;;13.53;72.72
72857;BME280;62742;52.136;4.500;2022-09-16T08:13:57;101268.66;;;13.40;73.68
72857;BME280;62742;52.136;4.500;2022-09-16T08:16:25;101264.63;;;13.64;73.62
72857;BME280;62742;52.136;4.500;2022-09-16T08:18:54;101268.13;;;13.64;74.29
72857;BME280;62742;52.136;4.500;2022-09-16T08:21:25;101262.34;;;13.47;74.41
72857;BME280;62742;52.136;4.500;2022-09-16T08:23:54;101258.78;;;13.51;73.15
72857;BME280;62742;52.136;4.500;2022-09-16T08:26:22;101265.63;;;13.60;74.51
72857;BME280;62742;52.136;4.500;2022-09-16T08:28:49;101266.38;;;13.67;75.26
72857;BME280;62742;52.136;4.500;2022-09-16T08:31:17;101266.47;;;14.01;75.49
72857;BME280;62742;52.136;4.500;2022-09-16T08:33:45;101266.63;;;14.31;73.22
72857;BME280;62742;52.136;4.500;2022-09-16T08:36:15;101272.50;;;14.80;74.02
72857;BME280;62742;52.136;4.500;2022-09-16T08:38:45;101289.94;;;14.87;74.18
72857;BME280;62742;52.136;4.500;2022-09-16T08:46:57;101291.13;;;13.59;69.67
72857;BME280;62742;52.136;4.500;2022-09-16T08:49:40;101292.44;;;13.40;73.64
72857;BME280;62742;52.136;4.500;2022-09-16T08:52:12;101307.06;;;13.56;73.32
72857;BME280;62742;52.136;4.500;2022-09-16T08:55:03;101297.13;;;13.24;71.78
72857;BME280;62742;52.136;4.500;2022-09-16T08:57:44;101307.38;;;13.41;70.44
72857;BME280;62742;52.136;4.500;2022-09-16T09:00:19;101312.19;;;13.62;71.23
72857;BME280;62742;52.136;4.500;2022-09-16T09:03:00;101311.44;;;13.99;73.22
72857;BME280;62742;52.136;4.500;2022-09-16T09:05:51;101305.16;;;14.03;71.32
72857;BME280;62742;52.136;4.500;2022-09-16T09:09:16;101303.09;;;13.77;71.30
72857;BME280;62742;52.136;4.500;2022-09-16T09:11:36;101300.16;;;13.91;71.54
72857;BME280;62742;52.136;4.500;2022-09-16T09:14:40;101300.03;;;14.35;74.72
72857;BME280;62742;52.136;4.500;2022-09-16T09:31:41;101297.28;;;14.00;74.05
72857;BME280;62742;52.136;4.500;2022-09-16T09:34:21;101299.41;;;14.24;71.11
72857;BME280;62742;52.136;4.500;2022-09-16T09:40:51;101300.56;;;14.49;73.25
72857;BME280;62742;52.136;4.500;2022-09-16T09:43:32;101301.25;;;14.57;73.58
72857;BME280;62742;52.136;4.500;2022-09-16T09:46:05;101297.72;;;14.58;74.77
72857;BME280;62742;52.136;4.500;2022-09-16T09:48:45;101297.50;;;14.68;73.64
72857;BME280;62742;52.136;4.500;2022-09-16T09:54:35;101308.34;;;14.55;71.57
72857;BME280;62742;52.136;4.500;2022-09-16T09:57:09;101295.81;;;14.26;68.90
72857;BME280;62742;52.136;4.500;2022-09-16T09:59:46;101302.34;;;14.11;70.35
72857;BME280;62742;52.136;4.500;2022-09-16T10:02:17;101296.84;;;13.81;73.29
72857;BME280;62742;52.136;4.500;2022-09-16T10:04:47;101309.06;;;13.87;70.18
72857;BME280;62742;52.136;4.500;2022-09-16T10:07:18;101299.09;;;13.98;70.02
72857;BME280;62742;52.136;4.500;2022-09-16T10:09:57;101300.41;;;13.80;70.70
72857;BME280;62742;52.136;4.500;2022-09-16T10:12:33;101289.56;;;13.93;70.28
72857;BME280;62742;52.136;4.500;2022-09-16T10:15:01;101287.31;;;14.51;67.13
72857;BME280;62742;52.136;4.500;2022-09-16T10:17:30;101284.44;;;15.27;70.68
72857;BME280;62742;52.136;4.500;2022-09-16T10:20:02;101289.66;;;15.92;70.22
72857;BME280;62742;52.136;4.500;2022-09-16T10:22:34;101293.19;;;15.92;68.22
72857;BME280;62742;52.136;4.500;2022-09-16T10:25:16;101288.19;;;15.51;65.54
72857;BME280;62742;52.136;4.500;2022-09-16T10:28:17;101291.56;;;15.57;62.63
72857;BME280;62742;52.136;4.500;2022-09-16T10:30:54;101286.47;;;15.80;61.89
72857;BME280;62742;52.136;4.500;2022-09-16T10:33:30;101285.13;;;15.65;64.16
72857;BME280;62742;52.136;4.500;2022-09-16T10:36:02;101293.63;;;15.78;64.05
72857;BME280;62742;52.136;4.500;2022-09-16T10:38:40;101289.56;;;15.95;61.22
72857;BME280;62742;52.136;4.500;2022-09-16T10:43:51;101287.88;;;16.74;57.55
72857;BME280;62742;52.136;4.500;2022-09-16T10:46:22;101298.00;;;16.62;59.55
72857;BME280;62742;52.136;4.500;2022-09-16T10:48:50;101294.97;;;16.20;60.65
72857;BME280;62742;52.136;4.500;2022-09-16T10:51:25;101288.22;;;16.91;65.13
72857;BME280;62742;52.136;4.500;2022-09-16T10:53:55;101286.06;;;16.76;58.84
72857;BME280;62742;52.136;4.500;2022-09-16T10:56:26;101290.53;;;17.26;59.15
72857;BME280;62742;52.136;4.500;2022-09-16T11:04:51;101312.50;;;15.96;54.79
72857;BME280;62742;52.136;4.500;2022-09-16T11:07:41;101308.63;;;16.07;52.29
72857;BME280;62742;52.136;4.500;2022-09-16T11:13:41;101291.59;;;16.41;54.61
72857;BME280;62742;52.136;4.500;2022-09-16T11:22:59;101316.06;;;16.51;60.19
72857;BME280;62742;52.136;4.500;2022-09-16T11:40:30;101306.56;;;16.44;67.07
72857;BME280;62742;52.136;4.500;2022-09-16T11:43:39;101320.38;;;16.80;64.75
72857;BME280;62742;52.136;4.500;2022-09-16T11:58:51;101310.19;;;16.68;61.41
72857;BME280;62742;52.136;4.500;2022-09-16T12:01:33;101315.41;;;16.71;58.38
72857;BME280;62742;52.136;4.500;2022-09-16T12:07:02;101311.19;;;17.90;57.30
72857;BME280;62742;52.136;4.500;2022-09-16T12:10:04;101321.56;;;18.20;55.31
72857;BME280;62742;52.136;4.500;2022-09-16T12:12:45;101315.28;;;17.75;52.81
72857;BME280;62742;52.136;4.500;2022-09-16T12:15:38;101320.84;;;17.20;57.93
72857;BME280;62742;52.136;4.500;2022-09-16T12:18:50;101318.00;;;16.73;58.47
72857;BME280;62742;52.136;4.500;2022-09-16T12:21:31;101335.56;;;16.77;61.59
72857;BME280;62742;52.136;4.500;2022-09-16T12:24:42;101325.69;;;15.99;62.47
72857;BME280;62742;52.136;4.500;2022-09-16T12:30:16;101330.66;;;15.15;62.00
72857;BME280;62742;52.136;4.500;2022-09-16T12:32:47;101344.38;;;14.97;62.92
72857;BME280;62742;52.136;4.500;2022-09-16T12:35:25;101335.13;;;14.79;65.00
72857;BME280;62742;52.136;4.500;2022-09-16T12:37:56;101335.69;;;14.92;65.40
72857;BME280;62742;52.136;4.500;2022-09-16T12:40:29;101339.00;;;15.00;67.03
72857;BME280;62742;52.136;4.500;2022-09-16T12:43:38;101339.47;;;14.82;66.72
72857;BME280;62742;52.136;4.500;2022-09-16T12:47:08;101341.03;;;14.89;65.88
72857;BME280;62742;52.136;4.500;2022-09-16T12:52:38;101327.53;;;15.00;63.85
72857;BME280;62742;52.136;4.500;2022-09-16T13:01:47;101321.38;;;14.99;66.30
72857;BME280;62742;52.136;4.500;2022-09-16T13:04:30;101322.94;;;15.06;66.42
72857;BME280;62742;52.136;4.500;2022-09-16T13:07:04;101316.16;;;14.96;67.86
72857;BME280;62742;52.136;4.500;2022-09-16T13:09:38;101319.03;;;14.88;68.48
72857;BME280;62742;52.136;4.500;2022-09-16T13:12:21;101323.25;;;14.95;70.33
72857;BME280;62742;52.136;4.500;2022-09-16T13:14:55;101319.06;;;14.87;68.36
72857;BME280;62742;52.136;4.500;2022-09-16T13:17:35;101314.75;;;14.83;67.69
72857;BME280;62742;52.136;4.500;2022-09-16T13:20:17;101312.78;;;14.53;70.01
72857;BME280;62742;52.136;4.500;2022-09-16T13:25:42;101308.78;;;14.74;69.81
72857;BME280;62742;52.136;4.500;2022-09-16T13:28:33;101316.16;;;14.96;65.72
72857;BME280;62742;52.136;4.500;2022-09-16T13:33:39;101327.69;;;15.91;59.74
72857;BME280;62742;52.136;4.500;2022-09-16T13:38:48;101319.44;;;15.70;56.14
72857;BME280;62742;52.136;4.500;2022-09-16T13:50:04;101306.19;;;16.00;52.19
72857;BME280;62742;52.136;4.500;2022-09-16T13:52:34;101313.41;;;15.65;53.72
72857;BME280;62742;52.136;4.500;2022-09-16T13:55:07;101299.38;;;15.61;53.41
72857;BME280;62742;52.136;4.500;2022-09-16T13:57:58;101305.84;;;15.82;54.73
72857;BME280;62742;52.136;4.500;2022-09-16T14:03:20;101295.16;;;16.14;56.40
72857;BME280;62742;52.136;4.500;2022-09-16T14:08:55;101299.81;;;16.34;57.83
72857;BME280;62742;52.136;4.500;2022-09-16T14:14:24;101291.09;;;16.83;56.65
72857;BME280;62742;52.136;4.500;2022-09-16T14:16:53;101291.56;;;17.22;56.40
72857;BME280;62742;52.136;4.500;2022-09-16T14:19:24;101299.03;;;17.35;55.96
72857;BME280;62742;52.136;4.500;2022-09-16T14:22:14;101305.50;;;17.52;54.67
72857;BME280;62742;52.136;4.500;2022-09-16T14:24:45;101308.06;;;16.79;56.28
72857;BME280;62742;52.136;4.500;2022-09-16T14:27:27;101303.81;;;16.47;57.14
72857;BME280;62742;52.136;4.500;2022-09-16T14:30:19;101300.13;;;16.24;56.13
72857;BME280;62742;52.136;4.500;2022-09-16T14:32:46;101296.56;;;16.25;55.57
72857;BME280;62742;52.136;4.500;2022-09-16T14:35:17;101308.84;;;16.55;55.92
72857;BME280;62742;52.136;4.500;2022-09-16T14:37:53;101288.69;;;17.02;54.11
72857;BME280;62742;52.136;4.500;2022-09-16T14:40:24;101297.78;;;16.95;53.74
72857;BME280;62742;52.136;4.500;2022-09-16T14:43:03;101303.47;;;16.58;54.11
72857;BME280;62742;52.136;4.500;2022-09-16T14:45:34;101297.63;;;16.73;55.22
72857;BME280;62742;52.136;4.500;2022-09-16T14:48:06;101291.94;;;17.11;55.57
72857;BME280;62742;52.136;4.500;2022-09-16T14:50:37;101296.66;;;17.02;53.41
72857;BME280;62742;52.136;4.500;2022-09-16T14:55:53;101297.88;;;17.43;52.16
72857;BME280;62742;52.136;4.500;2022-09-16T14:58:22;101317.53;;;17.13;54.49
72857;BME280;62742;52.136;4.500;2022-09-16T15:00:59;101312.81;;;16.41;56.57
72857;BME280;62742;52.136;4.500;2022-09-16T15:03:59;101303.78;;;16.20;58.23
72857;BME280;62742;52.136;4.500;2022-09-16T15:06:39;101302.06;;;16.19;55.84
72857;BME280;62742;52.136;4.500;2022-09-16T15:11:49;101280.34;;;16.61;55.90
72857;BME280;62742;52.136;4.500;2022-09-16T15:14:22;101294.28;;;16.68;54.17
72857;BME280;62742;52.136;4.500;2022-09-16T15:16:56;101294.94;;;16.75;53.22
72857;BME280;62742;52.136;4.500;2022-09-16T15:19:33;101306.38;;;16.50;55.46
72857;BME280;62742;52.136;4.500;2022-09-16T15:22:01;101305.09;;;16.35;54.51
72857;BME280;62742;52.136;4.500;2022-09-16T15:24:33;101302.72;;;15.98;54.91
72857;BME280;62742;52.136;4.500;2022-09-16T15:27:01;101311.78;;;15.59;56.88
72857;BME280;62742;52.136;4.500;2022-09-16T15:29:31;101314.00;;;15.73;58.17
72857;BME280;62742;52.136;4.500;2022-09-16T15:32:27;101311.53;;;15.68;54.52
72857;BME280;62742;52.136;4.500;2022-09-16T15:37:53;101307.72;;;16.07;53.47
72857;BME280;62742;52.136;4.500;2022-09-16T15:43:25;101301.44;;;16.38;56.92
72857;BME280;62742;52.136;4.500;2022-09-16T15:46:01;101310.09;;;16.44;52.71
72857;BME280;62742;52.136;4.500;2022-09-16T15:48:34;101304.41;;;16.29;54.30
72857;BME280;62742;52.136;4.500;2022-09-16T15:51:37;101304.72;;;16.46;53.02
72857;BME280;62742;52.136;4.500;2022-09-16T16:02:05;101306.34;;;15.34;55.17
72857;BME280;62742;52.136;4.500;2022-09-16T16:04:48;101309.59;;;15.42;56.69
72857;BME280;62742;52.136;4.500;2022-09-16T16:07:40;101317.22;;;15.55;58.52
72857;BME280;62742;52.136;4.500;2022-09-16T16:10:15;101308.34;;;15.56;58.97
72857;BME280;62742;52.136;4.500;2022-09-16T16:12:47;101312.84;;;15.22;59.96
72857;BME280;62742;52.136;4.500;2022-09-16T16:15:27;101315.03;;;15.05;59.88
72857;BME280;62742;52.136;4.500;2022-09-16T16:18:00;101317.66;;;15.39;59.92
72857;BME280;62742;52.136;4.500;2022-09-16T16:20:30;101318.03;;;15.57;54.12
72857;BME280;62742;52.136;4.500;2022-09-16T16:22:59;101306.69;;;15.53;53.54
72857;BME280;62742;52.136;4.500;2022-09-16T16:25:27;101318.13;;;15.22;52.67
72857;BME280;62742;52.136;4.500;2022-09-16T16:27:53;101324.97;;;15.61;54.98
72857;BME280;62742;52.136;4.500;2022-09-16T16:30:20;101312.75;;;15.25;55.20
72857;BME280;62742;52.136;4.500;2022-09-16T16:32:47;101314.44;;;14.95;57.11
72857;BME280;62742;52.136;4.500;2022-09-16T16:35:14;101320.44;;;15.34;58.00
72857;BME280;62742;52.136;4.500;2022-09-16T16:37:40;101312.19;;;15.45;60.55
72857;BME280;62742;52.136;4.500;2022-09-16T16:40:07;101316.28;;;15.56;59.59
72857;BME280;62742;52.136;4.500;2022-09-16T16:42:34;101311.78;;;15.59;60.67
72857;BME280;62742;52.136;4.500;2022-09-16T16:45:00;101311.53;;;15.68;60.19